Time;durP1;ratioP1;P1;durP2;ratioP2;P2;SDS_P1;SDS_P2;PMS_P1;PMS_P2;Temp;Humidity;BMP_temperature;BMP_pressure;BME280_temperature;BME280_humidity;BME280_pressure;Samples;Min_cycle;Max_cycle;Signal;HPM_P1;HPM_P2
2022/03/24 00:00:05;;;;;;;27.87;21.97;;;8.50;60.50;;;;;;6186477;23;20441;-85
2022/03/24 00:02:32;;;;;;;24.80;21.37;;;8.50;60.90;;;;;;6188382;23;20398;-85
2022/03/24 00:04:59;;;;;;;29.17;21.80;;;8.50;60.70;;;;;;6195303;23;20460;-85
2022/03/24 00:07:32;;;;;;;25.60;21.90;;;8.50;60.80;;;;;;6213271;23;20386;-84
2022/03/24 00:09:58;;;;;;;28.00;21.07;;;8.40;60.90;;;;;;6213875;23;20397;-84
2022/03/24 00:12:26;;;;;;;29.10;20.77;;;8.30;61.50;;;;;;6208417;23;20479;-84
2022/03/24 00:14:54;;;;;;;31.87;22.77;;;8.30;61.50;;;;;;6190684;23;20457;-84
2022/03/24 00:17:21;;;;;;;30.43;22.30;;;8.40;61.40;;;;;;6195100;23;20488;-84
2022/03/24 00:19:48;;;;;;;26.50;21.90;;;8.40;60.60;;;;;;6189889;23;20421;-84
2022/03/24 00:22:14;;;;;;;26.40;20.97;;;8.40;60.40;;;;;;6188557;23;20406;-84
2022/03/24 00:27:11;;;;;;;26.90;21.40;;;8.50;60.80;;;;;;6199125;23;20761;-83
2022/03/24 00:29:38;;;;;;;29.17;22.70;;;8.40;60.60;;;;;;6189488;23;20394;-83
2022/03/24 00:32:07;;;;;;;26.70;22.70;;;8.40;61.00;;;;;;6189024;23;20409;-83
2022/03/24 00:34:34;;;;;;;28.50;21.57;;;8.30;61.10;;;;;;6189332;23;20406;-83
2022/03/24 00:37:02;;;;;;;29.70;23.00;;;8.30;61.10;;;;;;6189076;23;20422;-83
2022/03/24 00:39:33;;;;;;;26.67;21.70;;;8.30;61.50;;;;;;6189595;23;20502;-83
2022/03/24 00:42:00;;;;;;;27.77;22.90;;;8.30;61.60;;;;;;6191272;23;20484;-84
2022/03/24 00:44:27;;;;;;;25.03;21.80;;;8.30;61.60;;;;;;6188766;23;20402;-84
2022/03/24 00:46:53;;;;;;;29.20;21.27;;;8.20;62.20;;;;;;6188869;23;20426;-84
2022/03/24 00:49:21;;;;;;;35.53;22.30;;;8.10;62.50;;;;;;6189176;23;20406;-82
2022/03/24 00:51:49;;;;;;;30.50;21.00;;;8.00;62.70;;;;;;6188050;23;20402;-83
2022/03/24 00:54:16;;;;;;;24.83;22.10;;;7.90;63.20;;;;;;6190607;23;20436;-84
2022/03/24 00:56:43;;;;;;;28.33;21.50;;;7.90;63.60;;;;;;6195437;23;20430;-84
2022/03/24 00:59:10;;;;;;;29.60;21.83;;;7.80;63.50;;;;;;6194185;23;20445;-84
2022/03/24 01:01:38;;;;;;;26.53;22.00;;;7.70;64.70;;;;;;6188300;23;20402;-84
2022/03/24 01:04:06;;;;;;;25.70;19.80;;;7.60;64.50;;;;;;6189186;23;20452;-82
2022/03/24 01:06:35;;;;;;;26.90;21.27;;;7.50;65.10;;;;;;6189588;23;20426;-82
2022/03/24 01:09:01;;;;;;;27.90;23.17;;;7.50;65.60;;;;;;6190575;23;20425;-82
2022/03/24 01:11:28;;;;;;;24.87;21.27;;;7.50;66.10;;;;;;6187353;23;20461;-82
2022/03/24 01:13:55;;;;;;;29.20;20.87;;;7.50;66.40;;;;;;6204072;23;20385;-79
2022/03/24 01:16:23;;;;;;;23.80;19.97;;;7.60;66.10;;;;;;6186641;23;20426;-81
2022/03/24 01:18:50;;;;;;;24.77;19.60;;;7.60;65.50;;;;;;6186434;23;20899;-81
2022/03/24 01:21:17;;;;;;;26.50;21.07;;;7.60;65.20;;;;;;6187585;23;20402;-81
2022/03/24 01:23:45;;;;;;;25.20;20.03;;;7.60;64.90;;;;;;6186906;23;20485;-83
2022/03/24 01:26:12;;;;;;;33.33;21.63;;;7.60;65.20;;;;;;6188438;23;20429;-83
2022/03/24 01:28:41;;;;;;;31.33;20.40;;;7.50;64.90;;;;;;6189972;23;20433;-82
2022/03/24 01:31:09;;;;;;;25.20;20.70;;;7.40;65.20;;;;;;6188386;23;20424;-83
2022/03/24 01:33:37;;;;;;;29.00;20.50;;;7.40;66.10;;;;;;6187889;23;20445;-81
2022/03/24 01:36:05;;;;;;;28.33;21.33;;;7.40;66.40;;;;;;6187145;23;20476;-81
2022/03/24 01:38:32;;;;;;;27.37;19.90;;;7.40;66.10;;;;;;6187904;23;20429;-80
2022/03/24 01:41:00;;;;;;;27.03;20.27;;;7.40;66.00;;;;;;6188261;23;20441;-81
2022/03/24 01:43:27;;;;;;;30.93;20.30;;;7.30;66.10;;;;;;6191314;23;20405;-83
2022/03/24 01:45:54;;;;;;;27.63;21.30;;;7.10;67.20;;;;;;6188610;23;20484;-84
2022/03/24 01:48:21;;;;;;;22.60;19.50;;;7.10;68.10;;;;;;6188214;23;20406;-84
2022/03/24 01:50:48;;;;;;;22.17;19.00;;;7.00;68.30;;;;;;6188724;23;20494;-83
2022/03/24 01:53:15;;;;;;;21.90;19.60;;;7.10;68.60;;;;;;6198843;23;20432;-82
2022/03/24 01:55:43;;;;;;;22.63;19.73;;;7.10;68.60;;;;;;6197101;23;20452;-83
2022/03/24 01:58:12;;;;;;;27.20;20.23;;;7.10;69.50;;;;;;6192871;23;20409;-83
2022/03/24 02:00:39;;;;;;;24.37;20.90;;;7.00;68.80;;;;;;6201358;23;20408;-82
2022/03/24 02:03:06;;;;;;;27.27;22.17;;;7.00;69.00;;;;;;6199326;23;20460;-82
2022/03/24 02:05:36;;;;;;;26.03;21.23;;;6.90;68.90;;;;;;6200787;23;20430;-82
2022/03/24 02:08:03;;;;;;;22.97;19.33;;;6.90;68.90;;;;;;6198563;23;20489;-83
2022/03/24 02:10:30;;;;;;;24.33;21.70;;;6.80;69.30;;;;;;6190737;23;20452;-84
2022/03/24 02:12:58;;;;;;;25.47;20.77;;;6.80;69.60;;;;;;6189317;23;20455;-84
2022/03/24 02:15:27;;;;;;;29.30;21.47;;;6.70;69.90;;;;;;6188946;23;20422;-83
2022/03/24 02:17:54;;;;;;;25.20;20.30;;;6.60;70.30;;;;;;6188687;23;20410;-84
2022/03/24 02:20:21;;;;;;;26.10;21.63;;;6.50;70.70;;;;;;6200943;23;20382;-81
2022/03/24 02:22:49;;;;;;;29.90;21.03;;;6.50;70.90;;;;;;6199140;23;20468;-82
2022/03/24 02:25:16;;;;;;;24.00;20.50;;;6.60;70.80;;;;;;6197793;23;20437;-84
2022/03/24 02:27:47;;;;;;;24.73;21.77;;;6.60;70.60;;;;;;6193470;23;20398;-83
2022/03/24 02:30:14;;;;;;;27.37;20.93;;;6.60;70.40;;;;;;6189350;23;20517;-84
2022/03/24 02:32:41;;;;;;;27.33;20.97;;;6.60;70.40;;;;;;6189235;23;20754;-82
2022/03/24 02:35:09;;;;;;;24.90;21.20;;;6.60;70.20;;;;;;6188931;23;20765;-81
2022/03/24 02:37:35;;;;;;;27.03;21.80;;;6.50;70.40;;;;;;6188286;23;20406;-83
2022/03/24 02:40:04;;;;;;;25.23;20.90;;;6.50;70.10;;;;;;6187006;23;20399;-83
2022/03/24 02:42:32;;;;;;;27.87;21.40;;;6.50;70.10;;;;;;6186912;23;20743;-84
2022/03/24 02:45:02;;;;;;;24.87;21.30;;;6.50;70.10;;;;;;6187075;23;20893;-83
2022/03/24 02:47:29;;;;;;;29.80;21.97;;;6.50;70.50;;;;;;6187476;23;20783;-84
2022/03/24 02:49:57;;;;;;;27.43;21.50;;;6.50;70.20;;;;;;6187600;23;20437;-84
2022/03/24 02:52:24;;;;;;;25.70;21.93;;;6.40;70.20;;;;;;6186891;23;20398;-83
2022/03/24 02:54:51;;;;;;;25.10;19.87;;;6.40;70.00;;;;;;6188598;23;20959;-83
2022/03/24 02:57:19;;;;;;;31.63;22.37;;;6.40;69.90;;;;;;6187237;23;20405;-83
2022/03/24 02:59:45;;;;;;;25.40;21.70;;;6.40;69.90;;;;;;6189378;23;20457;-83
2022/03/24 03:02:14;;;;;;;32.73;20.53;;;6.40;70.00;;;;;;6187442;23;20413;-84
2022/03/24 03:04:42;;;;;;;28.63;21.13;;;6.40;69.90;;;;;;6184191;23;20438;-83
2022/03/24 03:07:09;;;;;;;38.57;24.23;;;6.30;69.60;;;;;;6184497;23;20795;-83
2022/03/24 03:09:38;;;;;;;35.30;22.23;;;6.40;69.40;;;;;;6189041;23;20437;-82
2022/03/24 03:12:06;;;;;;;28.03;21.33;;;6.30;69.20;;;;;;6194158;23;20414;-81
2022/03/24 03:14:34;;;;;;;25.03;20.43;;;6.30;69.50;;;;;;6192795;23;20432;-81
2022/03/24 03:17:01;;;;;;;30.63;22.50;;;6.20;69.40;;;;;;6185695;23;20422;-84
2022/03/24 03:19:28;;;;;;;23.57;19.30;;;6.20;69.50;;;;;;6188055;23;20416;-82
2022/03/24 03:21:56;;;;;;;29.57;22.13;;;6.30;69.40;;;;;;6186868;23;20404;-83
2022/03/24 03:24:22;;;;;;;25.53;20.70;;;6.20;69.50;;;;;;6187242;23;20955;-82
2022/03/24 03:26:50;;;;;;;34.50;23.43;;;6.20;69.70;;;;;;6187050;23;20464;-82
2022/03/24 03:29:18;;;;;;;30.93;23.03;;;6.10;70.10;;;;;;6189773;23;20416;-83
2022/03/24 03:31:46;;;;;;;28.60;20.20;;;6.10;70.40;;;;;;6192552;23;20418;-83
2022/03/24 03:34:14;;;;;;;27.27;21.97;;;6.10;70.80;;;;;;6186499;23;20412;-83
2022/03/24 03:36:42;;;;;;;33.43;21.13;;;6.00;70.80;;;;;;6187524;23;20436;-83
2022/03/24 03:39:09;;;;;;;30.20;22.20;;;6.00;71.00;;;;;;6186271;23;20896;-83
2022/03/24 03:41:38;;;;;;;28.17;21.73;;;6.00;71.40;;;;;;6189179;23;20507;-82
2022/03/24 03:44:06;;;;;;;28.83;19.63;;;5.90;71.80;;;;;;6193828;23;20415;-83
2022/03/24 03:46:33;;;;;;;28.90;21.37;;;5.90;72.20;;;;;;6187024;23;20760;-83
2022/03/24 03:49:01;;;;;;;31.20;23.73;;;5.90;72.50;;;;;;6186208;23;20416;-84
2022/03/24 03:51:31;;;;;;;24.20;20.87;;;5.80;72.80;;;;;;6186370;23;20475;-82
2022/03/24 03:53:58;;;;;;;27.93;22.67;;;5.80;73.50;;;;;;6186429;23;20446;-83
2022/03/24 03:56:25;;;;;;;34.50;22.00;;;5.80;73.70;;;;;;6188433;23;20425;-81
2022/03/24 03:58:52;;;;;;;24.03;21.23;;;5.70;73.70;;;;;;6187363;23;20466;-81
2022/03/24 04:01:18;;;;;;;25.37;19.60;;;5.70;73.60;;;;;;6187429;23;20438;-82
2022/03/24 04:03:45;;;;;;;32.67;22.43;;;5.70;73.90;;;;;;6187052;23;20409;-83
2022/03/24 04:06:14;;;;;;;26.50;20.73;;;5.70;73.50;;;;;;6187951;23;20422;-83
2022/03/24 04:08:43;;;;;;;27.43;21.33;;;5.70;73.50;;;;;;6188440;23;20416;-81
2022/03/24 04:11:11;;;;;;;29.33;19.30;;;5.60;73.60;;;;;;6188121;23;20449;-83
2022/03/24 04:13:38;;;;;;;26.30;21.63;;;5.60;73.90;;;;;;6188683;23;20453;-84
2022/03/24 04:16:06;;;;;;;26.00;21.70;;;5.50;73.70;;;;;;6188934;23;20438;-82
2022/03/24 04:18:33;;;;;;;28.73;21.97;;;5.50;73.90;;;;;;6189171;23;20895;-82
2022/03/24 04:21:00;;;;;;;28.60;21.97;;;5.50;74.40;;;;;;6188194;23;20459;-82
2022/03/24 04:23:28;;;;;;;25.87;19.47;;;5.50;74.00;;;;;;6188171;23;20455;-82
2022/03/24 04:25:54;;;;;;;29.83;18.97;;;5.50;73.80;;;;;;6187022;23;20443;-84
2022/03/24 04:28:21;;;;;;;33.00;21.37;;;5.50;73.70;;;;;;6187429;23;20444;-82
2022/03/24 04:30:48;;;;;;;25.60;19.83;;;5.50;73.80;;;;;;6188080;23;20438;-82
2022/03/24 04:33:15;;;;;;;27.97;20.97;;;5.50;73.80;;;;;;6189308;23;20397;-83
2022/03/24 04:35:42;;;;;;;29.20;21.17;;;5.40;73.80;;;;;;6190416;23;20457;-82
2022/03/24 04:38:09;;;;;;;28.03;21.50;;;5.40;73.90;;;;;;6190180;23;20405;-80
2022/03/24 04:40:37;;;;;;;23.07;20.50;;;5.40;73.80;;;;;;6201385;23;20408;-82
2022/03/24 04:43:05;;;;;;;25.17;20.07;;;5.40;73.40;;;;;;6193308;23;20408;-82
2022/03/24 04:45:33;;;;;;;27.07;21.53;;;5.50;73.00;;;;;;6190588;23;20453;-82
2022/03/24 04:48:00;;;;;;;27.50;21.17;;;5.50;72.50;;;;;;6191315;23;20412;-82
2022/03/24 04:50:28;;;;;;;24.20;19.70;;;5.40;72.60;;;;;;6191332;23;20437;-81
2022/03/24 04:52:54;;;;;;;29.75;21.30;;;5.30;73.10;;;;;;6190204;23;20411;-80
2022/03/24 04:55:21;;;;;;;23.80;18.93;;;5.30;73.20;;;;;;6191215;23;20205;-82
2022/03/24 04:57:49;;;;;;;25.67;21.40;;;5.30;73.10;;;;;;6189420;23;20411;-81
2022/03/24 05:00:18;;;;;;;26.40;19.73;;;5.30;73.20;;;;;;6188023;23;20784;-82
2022/03/24 05:02:45;;;;;;;24.03;19.93;;;5.30;73.30;;;;;;6187877;23;20420;-82
2022/03/24 05:05:12;;;;;;;27.30;19.50;;;5.20;73.50;;;;;;6187906;23;20439;-81
2022/03/24 05:07:39;;;;;;;28.02;19.70;;;5.20;73.80;;;;;;6188236;23;20432;-82
2022/03/24 05:10:07;;;;;;;28.00;20.30;;;5.20;73.90;;;;;;6188196;23;20196;-82
2022/03/24 05:12:34;;;;;;;26.23;19.70;;;5.10;73.90;;;;;;6187283;23;20915;-81
2022/03/24 05:15:02;;;;;;;25.43;20.53;;;5.10;74.30;;;;;;6187021;23;20961;-83
2022/03/24 05:17:29;;;;;;;29.10;20.90;;;5.10;74.70;;;;;;6187311;23;20968;-82
2022/03/24 05:19:56;;;;;;;25.60;19.43;;;5.10;74.70;;;;;;6187978;23;20405;-82
2022/03/24 05:22:23;;;;;;;26.40;20.80;;;5.10;74.70;;;;;;6187106;23;20411;-81
2022/03/24 05:24:49;;;;;;;27.98;22.15;;;5.10;74.70;;;;;;6190391;23;20464;-81
2022/03/24 05:27:16;;;;;;;29.20;20.93;;;5.10;74.70;;;;;;6197897;23;20220;-80
2022/03/24 05:29:43;;;;;;;30.63;20.50;;;5.10;74.70;;;;;;6203960;23;20388;-81
2022/03/24 05:32:11;;;;;;;29.07;22.00;;;5.10;74.90;;;;;;6203976;23;21008;-83
2022/03/24 05:34:38;;;;;;;26.33;21.40;;;5.00;74.80;;;;;;6189037;23;20796;-84
2022/03/24 05:37:05;;;;;;;26.70;20.00;;;5.00;75.00;;;;;;6190274;23;20415;-84
2022/03/24 05:39:32;;;;;;;30.85;21.48;;;5.00;75.50;;;;;;6189396;23;20431;-83
2022/03/24 05:41:58;;;;;;;32.80;22.40;;;5.00;75.70;;;;;;6189247;23;20176;-82
2022/03/24 05:44:27;;;;;;;25.93;21.00;;;4.90;75.80;;;;;;6197296;23;20419;-82
2022/03/24 05:46:54;;;;;;;25.70;20.30;;;4.90;75.80;;;;;;6202374;23;20434;-78
2022/03/24 05:49:22;;;;;;;25.70;19.20;;;5.00;76.00;;;;;;6203220;23;20179;-82
2022/03/24 05:51:50;;;;;;;25.87;20.80;;;4.90;76.10;;;;;;6190212;23;20956;-81
2022/03/24 05:54:18;;;;;;;30.67;20.13;;;5.00;76.20;;;;;;6186130;23;20490;-82
2022/03/24 05:56:45;;;;;;;28.37;21.50;;;5.00;76.00;;;;;;6186213;23;20448;-83
2022/03/24 05:59:13;;;;;;;30.97;22.17;;;5.00;76.00;;;;;;6185862;23;20413;-83
2022/03/24 06:01:41;;;;;;;28.75;21.20;;;5.00;76.30;;;;;;6185678;23;20397;-82
2022/03/24 06:04:09;;;;;;;26.67;20.70;;;5.00;76.30;;;;;;6185650;23;20258;-82
2022/03/24 06:06:37;;;;;;;24.83;19.23;;;5.00;76.60;;;;;;6186502;23;20430;-82
2022/03/24 06:09:09;;;;;;;26.17;21.92;;;5.10;76.50;;;;;;6185589;23;20404;-82
2022/03/24 06:11:37;;;;;;;23.90;19.23;;;5.10;76.40;;;;;;6186954;23;20184;-82
2022/03/24 06:14:04;;;;;;;29.17;21.43;;;5.10;76.50;;;;;;6187501;23;20179;-81
2022/03/24 06:16:31;;;;;;;35.20;22.55;;;5.10;76.40;;;;;;6187116;23;20431;-80
2022/03/24 06:18:59;;;;;;;26.20;21.40;;;5.20;76.30;;;;;;6190133;23;20273;-82
2022/03/24 06:21:26;;;;;;;28.97;21.07;;;5.30;75.90;;;;;;6197809;23;20390;-82
2022/03/24 06:23:54;;;;;;;30.77;22.37;;;5.30;75.30;;;;;;6196869;23;20717;-82
2022/03/24 06:26:23;;;;;;;27.40;23.53;;;5.40;75.00;;;;;;6187246;23;20434;-82
2022/03/24 06:28:50;;;;;;;29.90;21.27;;;5.40;74.70;;;;;;6186653;23;20429;-80
2022/03/24 06:31:17;;;;;;;31.90;20.83;;;5.50;74.90;;;;;;6185022;23;20468;-82
2022/03/24 06:33:44;;;;;;;26.67;19.77;;;5.60;74.50;;;;;;6186537;23;20413;-78
2022/03/24 06:36:10;;;;;;;26.50;21.80;;;5.60;74.80;;;;;;6194770;23;20482;-81
2022/03/24 06:38:37;;;;;;;29.73;21.80;;;5.60;74.50;;;;;;6192638;23;20400;-82
2022/03/24 06:41:06;;;;;;;34.57;23.10;;;5.70;74.50;;;;;;6186999;23;20400;-81
2022/03/24 06:43:34;;;;;;;25.90;21.10;;;5.70;73.90;;;;;;6189473;23;20408;-82
2022/03/24 06:46:00;;;;;;;29.17;22.90;;;5.80;73.70;;;;;;6203025;23;20432;-82
2022/03/24 06:48:27;;;;;;;33.60;22.13;;;5.80;73.70;;;;;;6188566;23;20408;-82
2022/03/24 06:50:54;;;;;;;26.33;20.47;;;5.90;73.60;;;;;;6185103;23;20469;-80
2022/03/24 06:53:21;;;;;;;34.87;22.73;;;5.90;72.80;;;;;;6187451;23;20408;-82
2022/03/24 06:55:47;;;;;;;36.93;23.10;;;6.00;72.60;;;;;;6185351;23;20428;-81
2022/03/24 06:58:15;;;;;;;30.10;20.90;;;6.10;72.40;;;;;;6186824;23;20416;-80
2022/03/24 07:00:42;;;;;;;31.50;23.10;;;6.10;72.50;;;;;;6200072;23;20405;-83
2022/03/24 07:03:10;;;;;;;30.53;21.53;;;6.20;72.10;;;;;;6196794;23;20794;-84
2022/03/24 07:05:37;;;;;;;27.77;21.17;;;6.30;71.70;;;;;;6191610;23;20493;-83
2022/03/24 07:08:04;;;;;;;30.53;21.27;;;6.40;71.30;;;;;;6190939;23;20456;-83
2022/03/24 07:10:31;;;;;;;27.07;21.73;;;6.40;70.90;;;;;;6193365;23;20472;-84
2022/03/24 07:12:57;;;;;;;25.60;20.50;;;6.50;70.60;;;;;;6190131;23;20404;-84
2022/03/24 07:15:26;;;;;;;31.17;21.73;;;6.60;70.20;;;;;;6204218;23;20428;-81
2022/03/24 07:17:53;;;;;;;29.07;21.47;;;6.70;69.90;;;;;;6193855;23;20411;-82
2022/03/24 07:20:20;;;;;;;31.33;23.77;;;6.70;69.60;;;;;;6186984;23;20417;-82
2022/03/24 07:22:47;;;;;;;26.40;21.97;;;6.80;69.30;;;;;;6186131;23;20915;-82
2022/03/24 07:25:14;;;;;;;29.70;22.27;;;6.90;69.10;;;;;;6185861;23;20440;-82
2022/03/24 07:27:42;;;;;;;28.83;21.20;;;7.00;68.80;;;;;;6185742;23;20493;-83
2022/03/24 07:30:10;;;;;;;35.27;23.57;;;7.10;68.50;;;;;;6186798;23;20393;-81
2022/03/24 07:32:39;;;;;;;29.20;22.63;;;7.20;68.20;;;;;;6187495;23;20478;-80
2022/03/24 07:35:07;;;;;;;30.07;21.20;;;7.40;68.00;;;;;;6202427;23;20413;-78
2022/03/24 07:37:34;;;;;;;26.83;23.23;;;8.10;66.80;;;;;;6209345;23;20402;-81
2022/03/24 07:40:02;;;;;;;31.03;22.20;;;9.00;64.20;;;;;;6199004;23;20406;-81
2022/03/24 07:42:28;;;;;;;29.13;22.60;;;9.40;62.00;;;;;;6190150;23;20910;-82
2022/03/24 07:44:55;;;;;;;33.97;23.43;;;9.70;59.70;;;;;;6187592;23;20405;-81
2022/03/24 07:47:22;;;;;;;34.87;23.63;;;10.10;58.30;;;;;;6188776;23;20413;-83
2022/03/24 07:49:51;;;;;;;29.47;23.67;;;10.10;57.90;;;;;;6186870;23;20448;-80
2022/03/24 07:52:17;;;;;;;33.30;25.30;;;10.40;57.30;;;;;;6187280;23;20457;-80
2022/03/24 07:54:58;;;;;;;32.47;25.33;;;10.70;56.50;;;;;;6191104;23;20908;-83
2022/03/24 07:57:25;;;;;;;37.27;24.87;;;11.20;55.90;;;;;;6190483;23;20394;-82
2022/03/24 07:59:51;;;;;;;32.90;24.97;;;11.60;55.60;;;;;;6187633;23;20459;-82
2022/03/24 08:02:18;;;;;;;32.10;24.37;;;12.20;54.50;;;;;;6185787;23;20405;-81
2022/03/24 08:04:45;;;;;;;34.60;24.30;;;12.60;52.80;;;;;;6186159;23;20413;-83
2022/03/24 08:07:13;;;;;;;33.20;26.47;;;12.40;52.50;;;;;;6188209;23;20414;-82
2022/03/24 08:09:40;;;;;;;30.57;24.50;;;12.40;52.50;;;;;;6188179;23;20406;-83
2022/03/24 08:12:09;;;;;;;28.03;25.03;;;12.50;52.60;;;;;;6187592;23;20442;-84
2022/03/24 08:14:35;;;;;;;31.70;24.80;;;12.70;52.00;;;;;;6188295;23;20893;-83
2022/03/24 08:17:02;;;;;;;31.93;24.83;;;12.70;51.80;;;;;;6188323;23;20426;-83
2022/03/24 08:19:29;;;;;;;28.33;23.67;;;12.80;51.50;;;;;;6189750;23;20851;-84
2022/03/24 08:21:55;;;;;;;30.27;24.97;;;13.00;51.60;;;;;;6191020;23;20402;-83
2022/03/24 08:24:23;;;;;;;32.97;25.87;;;13.50;51.30;;;;;;6190670;23;20414;-83
2022/03/24 08:26:50;;;;;;;31.70;24.80;;;14.40;50.30;;;;;;6189798;23;20434;-82
2022/03/24 08:29:17;;;;;;;28.53;25.40;;;15.10;48.60;;;;;;6189427;23;20417;-82
2022/03/24 08:31:44;;;;;;;29.40;26.07;;;15.50;47.60;;;;;;6188933;23;20443;-83
2022/03/24 08:34:10;;;;;;;30.53;27.33;;;15.30;46.60;;;;;;6198661;23;20400;-82
2022/03/24 08:36:37;;;;;;;29.10;26.00;;;15.70;46.80;;;;;;6208312;23;20486;-82
2022/03/24 08:39:04;;;;;;;29.80;26.70;;;16.10;46.20;;;;;;6192317;23;20424;-85
2022/03/24 08:41:32;;;;;;;30.90;27.60;;;16.90;45.50;;;;;;6189363;23;20409;-84
2022/03/24 08:43:59;;;;;;;29.80;26.77;;;17.80;44.00;;;;;;6188720;23;20445;-82
2022/03/24 08:46:26;;;;;;;31.20;26.90;;;17.70;42.20;;;;;;6189050;23;20513;-83
2022/03/24 08:48:54;;;;;;;31.10;27.07;;;16.90;42.40;;;;;;6193534;23;20558;-81
2022/03/24 08:51:22;;;;;;;29.83;26.40;;;16.50;43.60;;;;;;6205508;23;20437;-81
2022/03/24 08:53:49;;;;;;;34.93;26.17;;;16.40;44.10;;;;;;6204439;23;20417;-81
2022/03/24 08:56:16;;;;;;;31.67;28.07;;;17.20;44.00;;;;;;6194816;23;20517;-84
2022/03/24 08:58:44;;;;;;;32.33;29.07;;;17.00;42.80;;;;;;6196493;23;20434;-81
2022/03/24 09:01:11;;;;;;;32.30;27.77;;;17.20;43.30;;;;;;6208921;23;20413;-82
2022/03/24 09:03:38;;;;;;;31.83;28.33;;;18.30;43.00;;;;;;6199251;23;20395;-83
2022/03/24 09:06:05;;;;;;;30.77;26.83;;;19.00;40.80;;;;;;6193073;23;20759;-82
2022/03/24 09:08:33;;;;;;;31.83;28.80;;;18.30;40.30;;;;;;6192981;23;20429;-82
2022/03/24 09:11:00;;;;;;;32.43;29.03;;;19.50;41.00;;;;;;6192694;23;20758;-82
2022/03/24 09:13:26;;;;;;;33.17;29.37;;;20.60;39.20;;;;;;6195975;23;20462;-82
2022/03/24 09:15:54;;;;;;;31.77;28.70;;;21.70;37.90;;;;;;6196447;23;20435;-82
2022/03/24 09:18:21;;;;;;;36.20;32.40;;;22.70;36.00;;;;;;6195478;23;20440;-82
2022/03/24 09:20:50;;;;;;;33.60;30.20;;;23.80;33.60;;;;;;6194488;23;20849;-83
2022/03/24 09:23:19;;;;;;;34.90;31.60;;;22.50;34.10;;;;;;6195487;23;20405;-82
2022/03/24 09:25:46;;;;;;;35.33;30.60;;;23.00;33.80;;;;;;6198065;23;20854;-83
2022/03/24 09:28:12;;;;;;;33.90;30.90;;;24.60;32.60;;;;;;6198127;23;20419;-83
2022/03/24 09:30:40;;;;;;;33.37;30.37;;;26.00;30.90;;;;;;6196084;23;20408;-82
2022/03/24 09:33:12;;;;;;;33.83;30.63;;;26.80;29.40;;;;;;6193792;23;20492;-83
2022/03/24 09:35:40;;;;;;;32.00;28.97;;;27.00;29.00;;;;;;6193154;23;20425;-83
2022/03/24 09:38:06;;;;;;;35.63;32.33;;;27.20;28.80;;;;;;6194355;23;20743;-82
2022/03/24 09:40:33;;;;;;;37.43;33.80;;;28.10;28.40;;;;;;6193733;23;20410;-82
2022/03/24 09:43:02;;;;;;;36.70;33.10;;;29.00;27.50;;;;;;6196304;23;20558;-82
2022/03/24 09:45:29;;;;;;;36.33;32.77;;;28.50;27.10;;;;;;6193835;23;20475;-82
2022/03/24 09:47:56;;;;;;;36.47;33.03;;;28.80;26.50;;;;;;6194370;23;20412;-82
2022/03/24 09:50:26;;;;;;;38.70;34.80;;;29.30;26.20;;;;;;6206333;23;20408;-80
2022/03/24 09:52:57;;;;;;;37.53;33.90;;;29.80;25.60;;;;;;6200402;23;20438;-81
2022/03/24 09:55:32;;;;;;;37.60;34.10;;;28.80;25.60;;;;;;6191500;23;20425;-80
2022/03/24 09:57:59;;;;;;;37.00;33.67;;;28.20;25.70;;;;;;6201406;23;20402;-83
2022/03/24 10:00:26;;;;;;;36.47;33.17;;;28.10;26.30;;;;;;6194176;23;20408;-83
2022/03/24 10:03:14;;;;;;;35.57;32.30;;;28.80;25.90;;;;;;6193105;23;20508;-83
2022/03/24 10:05:57;;;;;;;39.37;35.27;;;30.50;25.30;;;;;;6208189;23;20445;-84
2022/03/24 10:08:24;;;;;;;36.00;32.87;;;30.60;24.20;;;;;;6197430;23;20425;-85
2022/03/24 10:10:59;;;;;;;38.20;34.57;;;30.40;24.40;;;;;;6193461;23;20395;-85
2022/03/24 10:13:41;;;;;;;37.17;33.57;;;31.20;24.40;;;;;;6194377;23;20416;-84
2022/03/24 10:16:09;;;;;;;32.93;30.20;;;32.60;22.90;;;;;;6192093;23;20429;-85
2022/03/24 10:18:35;;;;;;;30.87;27.83;;;33.10;21.70;;;;;;6192794;23;20413;-84
2022/03/24 10:21:09;;;;;;;34.27;31.07;;;33.90;21.00;;;;;;6194068;23;20405;-83
2022/03/24 10:23:44;;;;;;;32.73;29.93;;;33.10;20.70;;;;;;6192483;23;20430;-84
2022/03/24 10:26:11;;;;;;;32.80;30.10;;;32.50;20.90;;;;;;6193301;23;20441;-84
2022/03/24 10:28:38;;;;;;;34.33;31.00;;;33.00;20.90;;;;;;6197493;23;20406;-83
2022/03/24 10:31:05;;;;;;;34.00;30.80;;;33.90;20.50;;;;;;6202030;23;20402;-84
2022/03/24 10:33:34;;;;;;;31.13;28.57;;;34.70;20.20;;;;;;6200649;23;20417;-83
2022/03/24 10:36:10;;;;;;;31.30;28.77;;;34.70;19.80;;;;;;6194593;23;20426;-84
2022/03/24 10:38:39;;;;;;;32.47;29.67;;;34.60;20.00;;;;;;6194169;23;20389;-84
2022/03/24 10:41:18;;;;;;;34.20;31.57;;;34.90;19.80;;;;;;6193595;23;20412;-85
2022/03/24 10:43:45;;;;;;;32.13;29.30;;;33.60;20.20;;;;;;6194626;23;20449;-85
2022/03/24 10:46:19;;;;;;;33.20;30.00;;;33.10;20.90;;;;;;6206697;23;20432;-84
2022/03/24 10:48:48;;;;;;;32.70;29.90;;;34.80;20.40;;;;;;6198401;23;20385;-85
2022/03/24 10:51:24;;;;;;;31.97;29.30;;;35.20;20.60;;;;;;6195336;23;20406;-85
2022/03/24 10:53:51;;;;;;;31.60;29.10;;;34.90;20.40;;;;;;6195127;23;20883;-85
2022/03/24 10:56:22;;;;;;;31.90;29.23;;;35.40;20.60;;;;;;6195015;23;20745;-85
2022/03/24 10:58:53;;;;;;;31.70;28.90;;;35.60;19.90;;;;;;6194001;23;20386;-84
2022/03/24 11:01:22;;;;;;;28.13;25.73;;;35.20;19.80;;;;;;6193183;23;20387;-85
2022/03/24 11:03:49;;;;;;;33.97;31.20;;;35.60;19.70;;;;;;6190090;23;20442;-83
2022/03/24 11:06:18;;;;;;;32.40;29.80;;;36.30;19.00;;;;;;6191538;23;20428;-84
2022/03/24 11:08:53;;;;;;;39.40;29.30;;;36.10;18.80;;;;;;6192260;23;20402;-84
2022/03/24 11:11:20;;;;;;;27.00;24.90;;;36.10;18.90;;;;;;6191759;23;20389;-85
2022/03/24 11:13:51;;;;;;;27.47;25.23;;;36.10;18.80;;;;;;6192906;23;20401;-84
2022/03/24 11:16:18;;;;;;;27.10;24.67;;;36.50;18.10;;;;;;6208375;23;20421;-83
2022/03/24 11:18:46;;;;;;;26.20;24.10;;;35.10;18.10;;;;;;6208621;23;20441;-83
2022/03/24 11:21:17;;;;;;;24.17;22.17;;;36.40;17.30;;;;;;6194885;23;20767;-83
2022/03/24 11:23:47;;;;;;;23.00;21.20;;;36.40;16.80;;;;;;6196013;23;20426;-84
2022/03/24 11:26:15;;;;;;;23.73;21.93;;;37.30;16.80;;;;;;6195062;23;20429;-84
2022/03/24 11:28:45;;;;;;;24.80;22.93;;;36.70;16.50;;;;;;6194695;23;20406;-84
2022/03/24 11:31:14;;;;;;;26.67;24.57;;;35.70;17.30;;;;;;6194532;23;20397;-83
2022/03/24 11:33:44;;;;;;;25.97;23.77;;;36.60;17.50;;;;;;6198615;23;20471;-85
2022/03/24 11:36:11;;;;;;;24.90;22.77;;;36.50;17.00;;;;;;6195673;23;20426;-85
2022/03/24 11:38:40;;;;;;;26.57;24.27;;;36.80;16.90;;;;;;6193952;23;20482;-85
2022/03/24 11:41:29;;;;;;;24.87;22.90;;;37.10;16.90;;;;;;6194579;23;20735;-84
2022/03/24 11:44:03;;;;;;;23.00;21.10;;;37.20;16.30;;;;;;6194198;23;20440;-84
2022/03/24 11:46:34;;;;;;;24.50;22.53;;;37.10;16.10;;;;;;6194911;23;20435;-85
2022/03/24 11:49:21;;;;;;;25.53;23.33;;;37.00;15.80;;;;;;6194476;23;20416;-85
2022/03/24 11:51:51;;;;;;;25.00;22.80;;;36.40;16.40;;;;;;6195085;23;20390;-84
2022/03/24 11:54:31;;;;;;;25.30;23.30;;;36.50;16.20;;;;;;6194244;23;20479;-83
2022/03/24 11:57:34;;;;;;;23.10;21.10;;;36.90;16.30;;;;;;6209021;23;20488;-81
2022/03/24 12:00:47;;;;;;;22.80;20.83;;;37.10;15.80;;;;;;6202573;23;20589;-83
2022/03/24 12:03:41;;;;;;;21.07;19.47;;;36.60;15.70;;;;;;6196883;23;20918;-84
2022/03/24 12:06:08;;;;;;;23.43;21.10;;;35.90;15.50;;;;;;6209821;23;20417;-81
2022/03/24 12:08:45;;;;;;;22.20;20.37;;;35.90;16.00;;;;;;6198997;23;20410;-81
2022/03/24 12:11:38;;;;;;;20.40;18.70;;;36.30;16.40;;;;;;6198343;23;20719;-83
2022/03/24 12:14:08;;;;;;;20.10;18.50;;;36.50;15.50;;;;;;6193021;23;20437;-83
2022/03/24 12:16:38;;;;;;;20.70;19.20;;;36.70;15.40;;;;;;6193827;23;20436;-81
2022/03/24 12:19:05;;;;;;;21.20;19.40;;;36.60;15.70;;;;;;6193334;23;20452;-82
2022/03/24 12:21:33;;;;;;;19.87;18.30;;;36.40;15.30;;;;;;6193309;23;20403;-82
2022/03/24 12:24:07;;;;;;;18.90;17.43;;;36.40;15.10;;;;;;6192376;23;20445;-81
2022/03/24 12:26:38;;;;;;;19.43;17.93;;;36.40;15.20;;;;;;6192019;23;20467;-81
2022/03/24 12:29:21;;;;;;;19.00;17.60;;;36.50;14.90;;;;;;6199007;23;20409;-80
2022/03/24 12:31:59;;;;;;;21.20;19.00;;;37.20;14.90;;;;;;6203686;23;20390;-82
2022/03/24 12:34:29;;;;;;;17.90;16.40;;;37.40;14.80;;;;;;6194873;23;20420;-81
2022/03/24 12:36:57;;;;;;;16.60;15.30;;;37.00;14.80;;;;;;6193174;23;20433;-82
2022/03/24 12:39:35;;;;;;;17.60;16.10;;;37.10;14.70;;;;;;6193120;23;20406;-83
2022/03/24 12:42:13;;;;;;;18.43;17.03;;;37.20;14.70;;;;;;6193501;23;20501;-83